sensor_id;sensor_type;location;lat;lon;timestamp;P1;durP1;ratioP1;P2;durP2;ratioP2
9324;SDS011;4701;51.566;6.776;2023-06-10T07:03:42;7.87;;;5.17;;
9324;SDS011;4701;51.566;6.776;2023-06-10T07:06:44;6.73;;;4.90;;
9324;SDS011;4701;51.566;6.776;2023-06-10T07:09:46;8.33;;;4.90;;
9324;SDS011;4701;51.566;6.776;2023-06-10T07:12:48;5.80;;;5.20;;
9324;SDS011;4701;51.566;6.776;2023-06-10T07:15:50;8.80;;;6.00;;
9324;SDS011;4701;51.566;6.776;2023-06-10T07:18:53;8.20;;;5.23;;
9324;SDS011;4701;51.566;6.776;2023-06-10T07:21:55;8.13;;;5.30;;
9324;SDS011;4701;51.566;6.776;2023-06-10T07:24:57;7.17;;;5.30;;
9324;SDS011;4701;51.566;6.776;2023-06-10T07:30:42;6.37;;;5.03;;
9324;SDS011;4701;51.566;6.776;2023-06-10T07:33:44;5.90;;;4.80;;
9324;SDS011;4701;51.566;6.776;2023-06-10T07:36:48;8.87;;;5.03;;
9324;SDS011;4701;51.566;6.776;2023-06-10T07:39:52;10.40;;;5.40;;
9324;SDS011;4701;51.566;6.776;2023-06-10T07:42:54;7.40;;;5.20;;
9324;SDS011;4701;51.566;6.776;2023-06-10T07:45:58;5.90;;;5.30;;
9324;SDS011;4701;51.566;6.776;2023-06-10T07:49:00;5.95;;;5.30;;
9324;SDS011;4701;51.566;6.776;2023-06-10T07:52:02;8.68;;;5.70;;
9324;SDS011;4701;51.566;6.776;2023-06-10T07:55:05;7.32;;;5.53;;
9324;SDS011;4701;51.566;6.776;2023-06-10T07:58:08;5.75;;;5.07;;
9324;SDS011;4701;51.566;6.776;2023-06-10T08:01:11;8.90;;;5.57;;
9324;SDS011;4701;51.566;6.776;2023-06-10T08:04:13;5.72;;;4.95;;
9324;SDS011;4701;51.566;6.776;2023-06-10T08:07:15;8.73;;;5.03;;
9324;SDS011;4701;51.566;6.776;2023-06-10T08:10:18;13.90;;;5.10;;
9324;SDS011;4701;51.566;6.776;2023-06-10T08:13:20;10.43;;;5.43;;
9324;SDS011;4701;51.566;6.776;2023-06-10T08:16:23;9.60;;;5.80;;
9324;SDS011;4701;51.566;6.776;2023-06-10T08:19:25;10.98;;;5.53;;
9324;SDS011;4701;51.566;6.776;2023-06-10T08:22:27;7.22;;;5.82;;
9324;SDS011;4701;51.566;6.776;2023-06-10T08:25:32;8.57;;;5.30;;
9324;SDS011;4701;51.566;6.776;2023-06-10T08:28:34;8.50;;;5.20;;
9324;SDS011;4701;51.566;6.776;2023-06-10T08:31:40;11.00;;;5.70;;
9324;SDS011;4701;51.566;6.776;2023-06-10T08:34:43;6.05;;;4.93;;
9324;SDS011;4701;51.566;6.776;2023-06-10T08:37:45;7.45;;;5.40;;
9324;SDS011;4701;51.566;6.776;2023-06-10T08:40:47;24.55;;;6.18;;
9324;SDS011;4701;51.566;6.776;2023-06-10T08:43:52;83.15;;;9.68;;
9324;SDS011;4701;51.566;6.776;2023-06-10T08:47:02;37.45;;;9.93;;
9324;SDS011;4701;51.566;6.776;2023-06-10T08:50:09;21.63;;;7.80;;
9324;SDS011;4701;51.566;6.776;2023-06-10T08:53:12;14.93;;;6.35;;
9324;SDS011;4701;51.566;6.776;2023-06-10T08:56:19;8.75;;;5.55;;
9324;SDS011;4701;51.566;6.776;2023-06-10T08:59:27;10.02;;;4.97;;
9324;SDS011;4701;51.566;6.776;2023-06-10T09:02:31;6.20;;;4.70;;
9324;SDS011;4701;51.566;6.776;2023-06-10T09:05:35;6.07;;;5.45;;
9324;SDS011;4701;51.566;6.776;2023-06-10T09:08:38;8.50;;;5.40;;
9324;SDS011;4701;51.566;6.776;2023-06-10T09:11:41;8.70;;;5.38;;
9324;SDS011;4701;51.566;6.776;2023-06-10T09:14:43;8.23;;;5.45;;
9324;SDS011;4701;51.566;6.776;2023-06-10T09:17:47;7.32;;;4.90;;
9324;SDS011;4701;51.566;6.776;2023-06-10T09:20:49;7.47;;;5.20;;
9324;SDS011;4701;51.566;6.776;2023-06-10T09:23:51;5.95;;;5.32;;
9324;SDS011;4701;51.566;6.776;2023-06-10T09:27:01;8.50;;;6.18;;
9324;SDS011;4701;51.566;6.776;2023-06-10T09:30:04;10.32;;;6.35;;
9324;SDS011;4701;51.566;6.776;2023-06-10T09:33:13;10.52;;;5.40;;
9324;SDS011;4701;51.566;6.776;2023-06-10T09:36:21;8.55;;;5.45;;
9324;SDS011;4701;51.566;6.776;2023-06-10T09:39:24;8.15;;;5.40;;
9324;SDS011;4701;51.566;6.776;2023-06-10T09:42:25;6.20;;;5.22;;
9324;SDS011;4701;51.566;6.776;2023-06-10T09:45:29;5.97;;;5.38;;
9324;SDS011;4701;51.566;6.776;2023-06-10T09:48:37;7.40;;;5.50;;
9324;SDS011;4701;51.566;6.776;2023-06-10T09:51:52;7.80;;;5.78;;
9324;SDS011;4701;51.566;6.776;2023-06-10T09:54:58;6.25;;;5.65;;
9324;SDS011;4701;51.566;6.776;2023-06-10T09:58:01;6.63;;;5.60;;
9324;SDS011;4701;51.566;6.776;2023-06-10T10:01:05;7.30;;;5.65;;
9324;SDS011;4701;51.566;6.776;2023-06-10T10:04:09;7.05;;;5.63;;
9324;SDS011;4701;51.566;6.776;2023-06-10T10:07:10;6.50;;;5.75;;
9324;SDS011;4701;51.566;6.776;2023-06-10T10:10:18;9.98;;;6.15;;
9324;SDS011;4701;51.566;6.776;2023-06-10T10:13:21;11.75;;;7.70;;
9324;SDS011;4701;51.566;6.776;2023-06-10T10:16:26;7.40;;;5.75;;
9324;SDS011;4701;51.566;6.776;2023-06-10T10:19:36;6.40;;;5.57;;
9324;SDS011;4701;51.566;6.776;2023-06-10T10:22:46;8.50;;;5.78;;
9324;SDS011;4701;51.566;6.776;2023-06-10T10:25:53;6.03;;;5.43;;
9324;SDS011;4701;51.566;6.776;2023-06-10T10:28:58;9.05;;;6.00;;
9324;SDS011;4701;51.566;6.776;2023-06-10T10:32:08;7.65;;;6.40;;
9324;SDS011;4701;51.566;6.776;2023-06-10T10:35:16;7.47;;;5.45;;
9324;SDS011;4701;51.566;6.776;2023-06-10T10:38:19;7.07;;;6.43;;
9324;SDS011;4701;51.566;6.776;2023-06-10T10:41:22;7.13;;;6.05;;
9324;SDS011;4701;51.566;6.776;2023-06-10T10:44:26;7.90;;;5.82;;
9324;SDS011;4701;51.566;6.776;2023-06-10T10:47:28;7.75;;;5.35;;
9324;SDS011;4701;51.566;6.776;2023-06-10T10:50:34;7.10;;;5.88;;
9324;SDS011;4701;51.566;6.776;2023-06-10T10:53:36;8.68;;;5.97;;
9324;SDS011;4701;51.566;6.776;2023-06-10T10:56:39;6.10;;;5.60;;
9324;SDS011;4701;51.566;6.776;2023-06-10T11:03:05;6.25;;;5.65;;
9324;SDS011;4701;51.566;6.776;2023-06-10T11:06:12;6.78;;;5.85;;
9324;SDS011;4701;51.566;6.776;2023-06-10T11:09:25;7.78;;;5.90;;
9324;SDS011;4701;51.566;6.776;2023-06-10T11:12:41;8.85;;;5.85;;
9324;SDS011;4701;51.566;6.776;2023-06-10T11:15:57;7.13;;;6.18;;
9324;SDS011;4701;51.566;6.776;2023-06-10T11:19:02;6.15;;;5.55;;
9324;SDS011;4701;51.566;6.776;2023-06-10T11:22:06;6.82;;;5.68;;
9324;SDS011;4701;51.566;6.776;2023-06-10T11:25:13;7.57;;;6.78;;
9324;SDS011;4701;51.566;6.776;2023-06-10T11:28:17;7.90;;;6.00;;
9324;SDS011;4701;51.566;6.776;2023-06-10T11:31:19;6.38;;;5.75;;
9324;SDS011;4701;51.566;6.776;2023-06-10T11:34:23;7.85;;;5.82;;
9324;SDS011;4701;51.566;6.776;2023-06-10T11:37:28;7.88;;;6.40;;
9324;SDS011;4701;51.566;6.776;2023-06-10T11:40:30;5.93;;;5.32;;
9324;SDS011;4701;51.566;6.776;2023-06-10T11:43:33;6.50;;;5.88;;
9324;SDS011;4701;51.566;6.776;2023-06-10T11:46:35;8.45;;;6.30;;
9324;SDS011;4701;51.566;6.776;2023-06-10T11:49:38;7.30;;;5.88;;
9324;SDS011;4701;51.566;6.776;2023-06-10T11:52:41;7.68;;;5.57;;
9324;SDS011;4701;51.566;6.776;2023-06-10T11:55:43;6.07;;;5.47;;
9324;SDS011;4701;51.566;6.776;2023-06-10T11:58:49;6.78;;;5.78;;
9324;SDS011;4701;51.566;6.776;2023-06-10T12:01:54;6.55;;;5.85;;
9324;SDS011;4701;51.566;6.776;2023-06-10T12:05:09;9.85;;;6.25;;
9324;SDS011;4701;51.566;6.776;2023-06-10T12:08:13;7.60;;;5.85;;
9324;SDS011;4701;51.566;6.776;2023-06-10T12:11:15;6.85;;;5.97;;
9324;SDS011;4701;51.566;6.776;2023-06-10T12:17:53;7.78;;;5.68;;
9324;SDS011;4701;51.566;6.776;2023-06-10T12:20:58;6.68;;;5.93;;
9324;SDS011;4701;51.566;6.776;2023-06-10T12:24:06;7.88;;;6.07;;
9324;SDS011;4701;51.566;6.776;2023-06-10T12:27:10;8.23;;;5.82;;
9324;SDS011;4701;51.566;6.776;2023-06-10T12:30:18;6.50;;;5.55;;
9324;SDS011;4701;51.566;6.776;2023-06-10T12:33:21;9.43;;;6.32;;
9324;SDS011;4701;51.566;6.776;2023-06-10T12:36:23;6.28;;;5.68;;
9324;SDS011;4701;51.566;6.776;2023-06-10T12:39:26;6.05;;;5.45;;
9324;SDS011;4701;51.566;6.776;2023-06-10T12:42:34;8.48;;;5.88;;
9324;SDS011;4701;51.566;6.776;2023-06-10T12:45:38;6.88;;;5.90;;
9324;SDS011;4701;51.566;6.776;2023-06-10T12:48:49;6.88;;;6.10;;
9324;SDS011;4701;51.566;6.776;2023-06-10T12:51:52;10.70;;;5.70;;
9324;SDS011;4701;51.566;6.776;2023-06-10T12:54:56;6.85;;;5.65;;
9324;SDS011;4701;51.566;6.776;2023-06-10T12:57:59;6.50;;;5.82;;
9324;SDS011;4701;51.566;6.776;2023-06-10T13:01:01;6.15;;;5.53;;
9324;SDS011;4701;51.566;6.776;2023-06-10T13:04:05;8.20;;;6.18;;
9324;SDS011;4701;51.566;6.776;2023-06-10T13:07:07;7.70;;;5.93;;
9324;SDS011;4701;51.566;6.776;2023-06-10T13:10:12;10.13;;;6.43;;
9324;SDS011;4701;51.566;6.776;2023-06-10T13:13:14;8.45;;;5.75;;
9324;SDS011;4701;51.566;6.776;2023-06-10T13:16:16;6.00;;;5.50;;
9324;SDS011;4701;51.566;6.776;2023-06-10T13:19:18;7.60;;;6.03;;
9324;SDS011;4701;51.566;6.776;2023-06-10T13:22:22;6.72;;;5.65;;
9324;SDS011;4701;51.566;6.776;2023-06-10T13:25:25;6.30;;;5.53;;
9324;SDS011;4701;51.566;6.776;2023-06-10T13:28:30;6.78;;;6.20;;
9324;SDS011;4701;51.566;6.776;2023-06-10T13:31:32;6.50;;;5.90;;
9324;SDS011;4701;51.566;6.776;2023-06-10T13:34:35;7.38;;;6.47;;
9324;SDS011;4701;51.566;6.776;2023-06-10T13:37:37;8.40;;;6.07;;
9324;SDS011;4701;51.566;6.776;2023-06-10T13:40:41;6.15;;;5.55;;
9324;SDS011;4701;51.566;6.776;2023-06-10T13:43:43;6.70;;;5.63;;
9324;SDS011;4701;51.566;6.776;2023-06-10T13:46:44;6.15;;;5.55;;
9324;SDS011;4701;51.566;6.776;2023-06-10T13:49:46;8.57;;;6.28;;
9324;SDS011;4701;51.566;6.776;2023-06-10T13:52:48;8.40;;;6.72;;
9324;SDS011;4701;51.566;6.776;2023-06-10T13:55:51;10.02;;;5.80;;
9324;SDS011;4701;51.566;6.776;2023-06-10T13:58:53;6.38;;;5.82;;
9324;SDS011;4701;51.566;6.776;2023-06-10T14:01:55;6.10;;;5.50;;
9324;SDS011;4701;51.566;6.776;2023-06-10T14:04:57;6.57;;;5.93;;
9324;SDS011;4701;51.566;6.776;2023-06-10T14:07:59;6.95;;;5.60;;
9324;SDS011;4701;51.566;6.776;2023-06-10T14:11:06;6.15;;;5.57;;
9324;SDS011;4701;51.566;6.776;2023-06-10T14:14:08;6.38;;;5.78;;
9324;SDS011;4701;51.566;6.776;2023-06-10T14:17:10;7.47;;;5.90;;
9324;SDS011;4701;51.566;6.776;2023-06-10T14:20:12;7.65;;;6.20;;
9324;SDS011;4701;51.566;6.776;2023-06-10T14:23:14;8.55;;;6.60;;
9324;SDS011;4701;51.566;6.776;2023-06-10T14:26:18;11.27;;;6.20;;
9324;SDS011;4701;51.566;6.776;2023-06-10T14:29:22;8.50;;;6.10;;
9324;SDS011;4701;51.566;6.776;2023-06-10T14:32:23;9.00;;;5.97;;
9324;SDS011;4701;51.566;6.776;2023-06-10T14:35:25;7.60;;;5.95;;
9324;SDS011;4701;51.566;6.776;2023-06-10T14:38:27;6.80;;;6.15;;
9324;SDS011;4701;51.566;6.776;2023-06-10T14:41:30;7.40;;;6.47;;
9324;SDS011;4701;51.566;6.776;2023-06-10T14:44:32;6.28;;;5.78;;
9324;SDS011;4701;51.566;6.776;2023-06-10T14:47:34;7.75;;;6.03;;
9324;SDS011;4701;51.566;6.776;2023-06-10T14:50:36;7.68;;;6.43;;
9324;SDS011;4701;51.566;6.776;2023-06-10T14:53:38;6.50;;;5.88;;
9324;SDS011;4701;51.566;6.776;2023-06-10T14:56:41;7.07;;;6.38;;
9324;SDS011;4701;51.566;6.776;2023-06-10T14:59:43;6.63;;;5.90;;
9324;SDS011;4701;51.566;6.776;2023-06-10T15:02:45;5.95;;;5.45;;
9324;SDS011;4701;51.566;6.776;2023-06-10T15:05:48;7.13;;;5.97;;
9324;SDS011;4701;51.566;6.776;2023-06-10T15:08:49;6.22;;;5.63;;
9324;SDS011;4701;51.566;6.776;2023-06-10T15:11:53;6.65;;;6.15;;
9324;SDS011;4701;51.566;6.776;2023-06-10T15:14:55;15.38;;;7.60;;
9324;SDS011;4701;51.566;6.776;2023-06-10T15:17:57;7.30;;;6.30;;
9324;SDS011;4701;51.566;6.776;2023-06-10T15:20:59;6.78;;;6.13;;
9324;SDS011;4701;51.566;6.776;2023-06-10T15:24:00;8.25;;;5.90;;
9324;SDS011;4701;51.566;6.776;2023-06-10T15:27:04;7.72;;;5.57;;
9324;SDS011;4701;51.566;6.776;2023-06-10T15:30:08;7.97;;;5.72;;
9324;SDS011;4701;51.566;6.776;2023-06-10T15:33:10;6.88;;;5.53;;
9324;SDS011;4701;51.566;6.776;2023-06-10T15:36:12;6.50;;;5.90;;
9324;SDS011;4701;51.566;6.776;2023-06-10T15:39:14;5.80;;;5.30;;
9324;SDS011;4701;51.566;6.776;2023-06-10T15:42:18;6.20;;;5.70;;
9324;SDS011;4701;51.566;6.776;2023-06-10T15:45:20;6.97;;;6.18;;
9324;SDS011;4701;51.566;6.776;2023-06-10T15:48:21;6.40;;;5.80;;
9324;SDS011;4701;51.566;6.776;2023-06-10T15:51:24;6.75;;;6.05;;
9324;SDS011;4701;51.566;6.776;2023-06-10T15:54:26;6.93;;;6.32;;
9324;SDS011;4701;51.566;6.776;2023-06-10T15:57:30;11.00;;;6.07;;
9324;SDS011;4701;51.566;6.776;2023-06-10T16:00:32;15.20;;;6.35;;
9324;SDS011;4701;51.566;6.776;2023-06-10T16:03:33;6.85;;;6.15;;
9324;SDS011;4701;51.566;6.776;2023-06-10T16:06:36;8.43;;;7.22;;
9324;SDS011;4701;51.566;6.776;2023-06-10T16:09:37;7.97;;;7.10;;
9324;SDS011;4701;51.566;6.776;2023-06-10T16:12:41;9.20;;;5.80;;
9324;SDS011;4701;51.566;6.776;2023-06-10T16:15:42;6.60;;;6.00;;
9324;SDS011;4701;51.566;6.776;2023-06-10T16:18:44;7.55;;;5.95;;
9324;SDS011;4701;51.566;6.776;2023-06-10T16:21:49;7.75;;;5.72;;
9324;SDS011;4701;51.566;6.776;2023-06-10T16:24:51;7.10;;;5.72;;
9324;SDS011;4701;51.566;6.776;2023-06-10T16:27:54;7.03;;;5.70;;
9324;SDS011;4701;51.566;6.776;2023-06-10T16:30:57;8.23;;;5.72;;
9324;SDS011;4701;51.566;6.776;2023-06-10T16:33:59;7.38;;;5.60;;
9324;SDS011;4701;51.566;6.776;2023-06-10T16:37:04;7.03;;;5.30;;
9324;SDS011;4701;51.566;6.776;2023-06-10T16:40:06;7.22;;;5.90;;
9324;SDS011;4701;51.566;6.776;2023-06-10T16:43:10;7.82;;;5.75;;
9324;SDS011;4701;51.566;6.776;2023-06-10T16:46:11;6.43;;;5.78;;
9324;SDS011;4701;51.566;6.776;2023-06-10T16:49:13;7.30;;;5.78;;
9324;SDS011;4701;51.566;6.776;2023-06-10T16:52:15;6.13;;;5.53;;
9324;SDS011;4701;51.566;6.776;2023-06-10T16:55:17;8.40;;;5.85;;
9324;SDS011;4701;51.566;6.776;2023-06-10T16:58:21;6.15;;;5.65;;
9324;SDS011;4701;51.566;6.776;2023-06-10T17:01:23;8.43;;;6.70;;
9324;SDS011;4701;51.566;6.776;2023-06-10T17:04:25;8.55;;;5.97;;
9324;SDS011;4701;51.566;6.776;2023-06-10T17:07:27;8.43;;;5.80;;
9324;SDS011;4701;51.566;6.776;2023-06-10T17:10:29;6.50;;;5.78;;
9324;SDS011;4701;51.566;6.776;2023-06-10T17:13:32;5.70;;;4.97;;
9324;SDS011;4701;51.566;6.776;2023-06-10T17:16:34;8.60;;;5.85;;
9324;SDS011;4701;51.566;6.776;2023-06-10T17:19:36;6.25;;;5.28;;
9324;SDS011;4701;51.566;6.776;2023-06-10T17:22:38;6.15;;;5.53;;
9324;SDS011;4701;51.566;6.776;2023-06-10T17:25:40;5.78;;;5.18;;
9324;SDS011;4701;51.566;6.776;2023-06-10T17:28:43;7.45;;;5.80;;
9324;SDS011;4701;51.566;6.776;2023-06-10T17:31:45;6.05;;;5.32;;
9324;SDS011;4701;51.566;6.776;2023-06-10T17:34:47;9.50;;;6.20;;
9324;SDS011;4701;51.566;6.776;2023-06-10T17:37:49;8.27;;;6.05;;
9324;SDS011;4701;51.566;6.776;2023-06-10T17:40:51;8.00;;;5.80;;
9324;SDS011;4701;51.566;6.776;2023-06-10T17:43:54;8.25;;;5.20;;
9324;SDS011;4701;51.566;6.776;2023-06-10T17:46:56;6.63;;;5.80;;
9324;SDS011;4701;51.566;6.776;2023-06-10T17:49:58;5.80;;;5.30;;
9324;SDS011;4701;51.566;6.776;2023-06-10T17:53:06;7.82;;;5.47;;
9324;SDS011;4701;51.566;6.776;2023-06-10T17:56:14;7.80;;;5.70;;
9324;SDS011;4701;51.566;6.776;2023-06-10T17:59:18;5.95;;;5.13;;
9324;SDS011;4701;51.566;6.776;2023-06-10T18:02:20;5.55;;;5.03;;
9324;SDS011;4701;51.566;6.776;2023-06-10T18:05:21;5.70;;;5.05;;
9324;SDS011;4701;51.566;6.776;2023-06-10T18:08:23;8.05;;;5.22;;
9324;SDS011;4701;51.566;6.776;2023-06-10T18:11:25;7.18;;;5.53;;
9324;SDS011;4701;51.566;6.776;2023-06-10T18:14:29;5.95;;;5.10;;
9324;SDS011;4701;51.566;6.776;2023-06-10T18:17:31;5.88;;;5.13;;
9324;SDS011;4701;51.566;6.776;2023-06-10T18:20:33;5.85;;;5.35;;
9324;SDS011;4701;51.566;6.776;2023-06-10T18:23:35;12.55;;;5.22;;
9324;SDS011;4701;51.566;6.776;2023-06-10T18:26:39;9.70;;;5.82;;
9324;SDS011;4701;51.566;6.776;2023-06-10T18:29:43;6.60;;;5.10;;
9324;SDS011;4701;51.566;6.776;2023-06-10T18:32:45;7.15;;;5.40;;
9324;SDS011;4701;51.566;6.776;2023-06-10T18:35:47;6.68;;;5.97;;
9324;SDS011;4701;51.566;6.776;2023-06-10T18:38:48;9.45;;;7.63;;
9324;SDS011;4701;51.566;6.776;2023-06-10T18:41:50;5.95;;;5.25;;
9324;SDS011;4701;51.566;6.776;2023-06-10T18:44:54;6.38;;;5.50;;
9324;SDS011;4701;51.566;6.776;2023-06-10T18:47:56;6.13;;;5.53;;
9324;SDS011;4701;51.566;6.776;2023-06-10T18:51:00;7.85;;;7.15;;
9324;SDS011;4701;51.566;6.776;2023-06-10T18:54:03;7.22;;;6.38;;
9324;SDS011;4701;51.566;6.776;2023-06-10T18:57:05;6.95;;;6.35;;
9324;SDS011;4701;51.566;6.776;2023-06-10T19:00:10;6.22;;;5.63;;
9324;SDS011;4701;51.566;6.776;2023-06-10T19:03:13;6.88;;;5.75;;
9324;SDS011;4701;51.566;6.776;2023-06-10T19:06:15;7.13;;;5.43;;
9324;SDS011;4701;51.566;6.776;2023-06-10T19:09:17;6.28;;;5.57;;
9324;SDS011;4701;51.566;6.776;2023-06-10T19:12:19;9.15;;;5.88;;
9324;SDS011;4701;51.566;6.776;2023-06-10T19:15:24;8.77;;;6.10;;
9324;SDS011;4701;51.566;6.776;2023-06-10T19:18:25;11.38;;;8.43;;
9324;SDS011;4701;51.566;6.776;2023-06-10T19:21:27;10.45;;;8.25;;
9324;SDS011;4701;51.566;6.776;2023-06-10T19:24:29;8.48;;;7.65;;
9324;SDS011;4701;51.566;6.776;2023-06-10T19:27:31;9.15;;;7.43;;
9324;SDS011;4701;51.566;6.776;2023-06-10T19:30:35;7.38;;;5.88;;
9324;SDS011;4701;51.566;6.776;2023-06-10T19:33:37;9.20;;;5.45;;
9324;SDS011;4701;51.566;6.776;2023-06-10T19:36:39;6.55;;;5.68;;
9324;SDS011;4701;51.566;6.776;2023-06-10T19:39:41;7.53;;;5.30;;
9324;SDS011;4701;51.566;6.776;2023-06-10T19:42:45;6.57;;;5.90;;
9324;SDS011;4701;51.566;6.776;2023-06-10T19:45:49;7.82;;;5.50;;
9324;SDS011;4701;51.566;6.776;2023-06-10T19:48:51;7.13;;;5.80;;
9324;SDS011;4701;51.566;6.776;2023-06-10T19:51:53;8.15;;;5.82;;
9324;SDS011;4701;51.566;6.776;2023-06-10T19:54:55;5.70;;;5.13;;
9324;SDS011;4701;51.566;6.776;2023-06-10T19:57:57;6.75;;;5.43;;
9324;SDS011;4701;51.566;6.776;2023-06-10T20:01:00;6.70;;;6.00;;
9324;SDS011;4701;51.566;6.776;2023-06-10T20:04:02;7.40;;;5.30;;
9324;SDS011;4701;51.566;6.776;2023-06-10T20:07:04;7.00;;;5.88;;
9324;SDS011;4701;51.566;6.776;2023-06-10T20:10:06;6.38;;;5.72;;
9324;SDS011;4701;51.566;6.776;2023-06-10T20:13:08;6.47;;;5.70;;
9324;SDS011;4701;51.566;6.776;2023-06-10T20:16:12;8.88;;;6.32;;
9324;SDS011;4701;51.566;6.776;2023-06-10T20:19:14;6.55;;;5.97;;
9324;SDS011;4701;51.566;6.776;2023-06-10T20:22:16;7.88;;;5.78;;
9324;SDS011;4701;51.566;6.776;2023-06-10T20:25:18;7.70;;;6.68;;
9324;SDS011;4701;51.566;6.776;2023-06-10T20:28:20;6.80;;;6.00;;
9324;SDS011;4701;51.566;6.776;2023-06-10T20:31:23;6.55;;;5.85;;
9324;SDS011;4701;51.566;6.776;2023-06-10T20:34:26;6.60;;;5.97;;
9324;SDS011;4701;51.566;6.776;2023-06-10T20:37:28;6.97;;;6.35;;
9324;SDS011;4701;51.566;6.776;2023-06-10T20:40:30;7.47;;;6.15;;
9324;SDS011;4701;51.566;6.776;2023-06-10T20:43:32;6.72;;;6.07;;
9324;SDS011;4701;51.566;6.776;2023-06-10T20:46:35;6.97;;;6.28;;
9324;SDS011;4701;51.566;6.776;2023-06-10T20:49:37;8.95;;;6.55;;
9324;SDS011;4701;51.566;6.776;2023-06-10T20:52:39;6.63;;;6.05;;
9324;SDS011;4701;51.566;6.776;2023-06-10T20:55:41;9.13;;;6.88;;
9324;SDS011;4701;51.566;6.776;2023-06-10T20:58:43;7.07;;;6.38;;
9324;SDS011;4701;51.566;6.776;2023-06-10T21:01:47;7.70;;;7.00;;
9324;SDS011;4701;51.566;6.776;2023-06-10T21:04:48;7.47;;;6.68;;
9324;SDS011;4701;51.566;6.776;2023-06-10T21:07:50;7.28;;;6.57;;
9324;SDS011;4701;51.566;6.776;2023-06-10T21:10:52;8.30;;;6.90;;
9324;SDS011;4701;51.566;6.776;2023-06-10T21:13:54;7.80;;;6.68;;
9324;SDS011;4701;51.566;6.776;2023-06-10T21:16:58;10.27;;;6.97;;
9324;SDS011;4701;51.566;6.776;2023-06-10T21:20:00;7.10;;;6.40;;
9324;SDS011;4701;51.566;6.776;2023-06-10T21:23:02;7.55;;;6.80;;
9324;SDS011;4701;51.566;6.776;2023-06-10T21:26:04;8.07;;;7.20;;
9324;SDS011;4701;51.566;6.776;2023-06-10T21:29:06;7.90;;;6.63;;
9324;SDS011;4701;51.566;6.776;2023-06-10T21:32:10;9.30;;;6.47;;
9324;SDS011;4701;51.566;6.776;2023-06-10T21:35:14;7.68;;;6.97;;
9324;SDS011;4701;51.566;6.776;2023-06-10T21:38:17;7.68;;;6.97;;
9324;SDS011;4701;51.566;6.776;2023-06-10T21:41:18;8.00;;;7.20;;
9324;SDS011;4701;51.566;6.776;2023-06-10T21:44:22;9.07;;;7.22;;
9324;SDS011;4701;51.566;6.776;2023-06-10T21:47:26;8.05;;;7.32;;
9324;SDS011;4701;51.566;6.776;2023-06-10T21:50:27;8.90;;;7.15;;
9324;SDS011;4701;51.566;6.776;2023-06-10T21:53:29;8.43;;;7.65;;
9324;SDS011;4701;51.566;6.776;2023-06-10T21:56:31;8.27;;;7.47;;
9324;SDS011;4701;51.566;6.776;2023-06-10T21:59:33;8.15;;;7.38;;
9324;SDS011;4701;51.566;6.776;2023-06-10T22:02:38;8.65;;;7.22;;
9324;SDS011;4701;51.566;6.776;2023-06-10T22:05:41;7.70;;;7.00;;
9324;SDS011;4701;51.566;6.776;2023-06-10T22:08:43;9.20;;;7.22;;
9324;SDS011;4701;51.566;6.776;2023-06-10T22:11:48;8.50;;;7.60;;
9324;SDS011;4701;51.566;6.776;2023-06-10T22:14:50;8.98;;;7.30;;
9324;SDS011;4701;51.566;6.776;2023-06-10T22:17:54;8.73;;;7.38;;
9324;SDS011;4701;51.566;6.776;2023-06-10T22:20:55;7.90;;;7.18;;
9324;SDS011;4701;51.566;6.776;2023-06-10T22:23:57;8.38;;;7.68;;
9324;SDS011;4701;51.566;6.776;2023-06-10T22:26:59;13.30;;;8.13;;
9324;SDS011;4701;51.566;6.776;2023-06-10T22:30:02;8.90;;;7.80;;
9324;SDS011;4701;51.566;6.776;2023-06-10T22:33:05;8.60;;;7.82;;
9324;SDS011;4701;51.566;6.776;2023-06-10T22:36:09;10.98;;;7.50;;
9324;SDS011;4701;51.566;6.776;2023-06-10T22:39:11;9.75;;;7.78;;
9324;SDS011;4701;51.566;6.776;2023-06-10T22:42:13;12.55;;;8.32;;
9324;SDS011;4701;51.566;6.776;2023-06-10T22:45:15;8.38;;;7.63;;
9324;SDS011;4701;51.566;6.776;2023-06-10T22:48:18;8.85;;;7.57;;
9324;SDS011;4701;51.566;6.776;2023-06-10T22:51:20;9.30;;;7.47;;
9324;SDS011;4701;51.566;6.776;2023-06-10T22:54:22;8.07;;;7.30;;
9324;SDS011;4701;51.566;6.776;2023-06-10T22:57:26;8.30;;;7.50;;
9324;SDS011;4701;51.566;6.776;2023-06-10T23:00:28;8.93;;;8.07;;
9324;SDS011;4701;51.566;6.776;2023-06-10T23:03:31;8.02;;;7.28;;
9324;SDS011;4701;51.566;6.776;2023-06-10T23:06:33;9.60;;;8.35;;
9324;SDS011;4701;51.566;6.776;2023-06-10T23:09:35;8.57;;;7.68;;
9324;SDS011;4701;51.566;6.776;2023-06-10T23:12:37;8.85;;;7.93;;
9324;SDS011;4701;51.566;6.776;2023-06-10T23:15:39;9.32;;;7.68;;
9324;SDS011;4701;51.566;6.776;2023-06-10T23:18:42;8.95;;;8.05;;
9324;SDS011;4701;51.566;6.776;2023-06-10T23:21:44;8.25;;;7.35;;
9324;SDS011;4701;51.566;6.776;2023-06-10T23:24:53;8.55;;;7.75;;
9324;SDS011;4701;51.566;6.776;2023-06-10T23:27:56;9.55;;;7.30;;
9324;SDS011;4701;51.566;6.776;2023-06-10T23:30:58;8.35;;;7.63;;
9324;SDS011;4701;51.566;6.776;2023-06-10T23:34:01;9.18;;;8.27;;
9324;SDS011;4701;51.566;6.776;2023-06-10T23:37:04;8.10;;;7.18;;
9324;SDS011;4701;51.566;6.776;2023-06-10T23:40:11;8.68;;;7.88;;
9324;SDS011;4701;51.566;6.776;2023-06-10T23:43:18;8.55;;;7.75;;
9324;SDS011;4701;51.566;6.776;2023-06-10T23:46:20;9.05;;;7.88;;
9324;SDS011;4701;51.566;6.776;2023-06-10T23:49:24;8.05;;;7.25;;
9324;SDS011;4701;51.566;6.776;2023-06-10T23:52:26;8.40;;;7.60;;
9324;SDS011;4701;51.566;6.776;2023-06-10T23:55:28;8.40;;;7.60;;
9324;SDS011;4701;51.566;6.776;2023-06-10T23:58:30;8.40;;;7.70;;
